Airfield :







YOU CAN JOIN US ON...

 
LOGIN :

Register | Disclaimer

   EN    FR    IT 

 









Legend :    VFR   Marginal VFR   IFR   Intensive IFR   Very Intensive IFR
Visi :
Ceiling :
>= 8 km
>= 3000ft
5 to 8 km
1000 to 3000 ft
1500m to 5 km
500 to 1000 ft
800 to 1500m
200 to 500 ft
< 800m
< 200 ft
Symbols :   Thunderstorms  Fog  Heavy snow  Heavy precipitations  Wind > 20 kt






- Airport Elevation : 285 ft
- IATA code : ALB


KALB - Albany International

CURRENT METAR :
  • 181051Z 02003KT 10SM BKN160 OVC250 M12/M18 A3065 RMK AO2 SLP384 T11221183

EXPIRED METARs :
  • 180951Z 01004KT 10SM BKN180 OVC250 M12/M18 A3066 RMK AO2 SLP388 T11221183
  • 180851Z 35003KT 10SM BKN180 OVC210 M12/M19 A3068 RMK AO2 SLP394 T11171189 58016

TAF KALB
Valid from the 18 at 06:00 until the 19 at 06:00 UTC


180534Z 1806/1906 01004KT P6SM OVC250
FM181200 04003KT P6SM OVC100
FM181900 15005KT 2SM -SN BR OVC020
FM182100 16007KT 3/4SM -SN BR VV008
FM190200 17007KT 3SM -SHSN OVC012



MET'MAP, your aeronautical weather chart ! - Copyright ORBIFLY December 2007 - Disclaimer

ORBIFLY MET'MAP TEAM :

Programming & Development : Alexandra Zaïnal
Concept & original design : Baudouin d'Aumeries
Assistance for programming : Marc-Olivier Méhu
Technical & hardware support : Manuel Goepfert

Contact : metmap@orbifly.com




SOURCES & CREDITS :

   NOAA